Time;durP1;ratioP1;P1;durP2;ratioP2;P2;SDS_P1;SDS_P2;PMS_P1;PMS_P2;Temp;Humidity;BMP_temperature;BMP_pressure;BME280_temperature;BME280_humidity;BME280_pressure;Samples;Min_cycle;Max_cycle;Signal;HPM_P1;HPM_P2
2023/03/03 00:00:51;;;;;;;2.67;2.47;;;19.10;36.40;;;;;;4994612;28;20220;-67
2023/03/03 00:03:19;;;;;;;2.70;2.50;;;19.20;36.50;;;;;;4989893;28;20258;-76
2023/03/03 00:05:45;;;;;;;3.70;3.40;;;19.10;36.50;;;;;;5004581;28;20242;-79
2023/03/03 00:08:10;;;;;;;3.00;2.80;;;19.10;36.40;;;;;;4990998;28;20415;-75
2023/03/03 00:10:37;;;;;;;3.30;3.10;;;19.20;36.50;;;;;;4993276;28;20258;-77
2023/03/03 00:13:02;;;;;;;2.40;2.30;;;19.10;36.40;;;;;;4996334;28;20238;-74
2023/03/03 00:15:29;;;;;;;3.97;3.23;;;19.10;36.40;;;;;;4999976;28;20954;-74
2023/03/03 00:17:55;;;;;;;2.70;2.60;;;19.10;36.40;;;;;;4988480;28;20224;-80
2023/03/03 00:20:39;;;;;;;3.37;3.17;;;19.10;36.50;;;;;;4995316;28;20963;-80
2023/03/03 00:23:30;;;;;;;3.03;2.83;;;19.10;36.40;;;;;;4993073;28;21072;-74
2023/03/03 00:25:56;;;;;;;3.00;2.80;;;19.10;36.40;;;;;;4996666;28;20979;-77
2023/03/03 00:28:49;;;;;;;2.73;2.57;;;19.10;36.40;;;;;;4979928;28;20432;-78
2023/03/03 00:31:33;;;;;;;3.30;3.10;;;19.10;36.40;;;;;;4990983;28;20429;-80
2023/03/03 00:34:30;;;;;;;3.50;3.20;;;19.10;36.50;;;;;;4993951;28;20561;-78
2023/03/03 00:36:57;;;;;;;3.97;3.77;;;19.10;36.50;;;;;;4995415;28;20465;-76
2023/03/03 00:39:26;;;;;;;3.67;3.40;;;19.10;36.50;;;;;;4984981;28;20434;-74
2023/03/03 00:41:52;;;;;;;4.40;4.10;;;19.10;36.50;;;;;;5001010;28;20921;-80
2023/03/03 00:44:41;;;;;;;2.90;2.70;;;19.10;36.50;;;;;;5025715;28;20847;-82
2023/03/03 00:47:26;;;;;;;3.03;2.83;;;19.10;36.50;;;;;;4986993;28;20455;-80
2023/03/03 00:49:53;;;;;;;3.60;3.40;;;19.10;36.50;;;;;;4989200;28;20447;-77
2023/03/03 00:52:20;;;;;;;3.50;3.30;;;19.10;36.50;;;;;;4988878;28;20863;-71
2023/03/03 00:54:46;;;;;;;4.07;3.80;;;19.10;36.40;;;;;;4995171;28;21114;-76
2023/03/03 00:57:11;;;;;;;4.60;4.20;;;19.10;36.50;;;;;;4986776;28;20420;-78
2023/03/03 00:59:38;;;;;;;4.30;4.00;;;19.10;36.40;;;;;;4996400;28;20314;-79
2023/03/03 01:02:04;;;;;;;3.87;3.67;;;19.20;36.50;;;;;;4992206;28;20226;-75
2023/03/03 01:04:29;;;;;;;3.90;3.70;;;19.20;36.50;;;;;;4994329;28;20432;-76
2023/03/03 01:06:55;;;;;;;4.50;4.10;;;19.20;36.50;;;;;;4986259;28;20501;-68
2023/03/03 01:09:21;;;;;;;4.17;3.87;;;19.20;37.20;;;;;;4994403;28;20257;-77
2023/03/03 01:11:47;;;;;;;3.93;3.63;;;19.20;36.40;;;;;;4992892;28;20314;-77
2023/03/03 01:14:12;;;;;;;4.33;4.07;;;19.20;36.40;;;;;;4988229;28;20215;-66
2023/03/03 01:16:38;;;;;;;5.20;4.80;;;19.20;36.40;;;;;;4996794;28;20235;-80
2023/03/03 01:19:03;;;;;;;4.10;3.80;;;19.20;36.40;;;;;;4995849;28;20223;-76
2023/03/03 01:21:29;;;;;;;5.47;4.97;;;19.10;36.40;;;;;;4984822;28;20327;-73
2023/03/03 01:23:54;;;;;;;5.00;4.60;;;19.20;36.50;;;;;;4998798;28;20219;-78
2023/03/03 01:26:20;;;;;;;4.07;3.87;;;19.10;36.40;;;;;;4994761;28;20569;-76
2023/03/03 01:28:45;;;;;;;4.70;4.40;;;19.20;36.50;;;;;;4997441;28;20257;-72
2023/03/03 01:31:11;;;;;;;4.27;3.97;;;19.10;36.50;;;;;;5000232;28;20235;-80
2023/03/03 01:33:37;;;;;;;4.47;4.10;;;19.20;36.50;;;;;;4983233;28;20223;-76
2023/03/03 01:36:03;;;;;;;4.70;4.40;;;19.10;36.40;;;;;;4988965;28;20459;-78
2023/03/03 01:38:29;;;;;;;4.40;4.10;;;19.10;36.40;;;;;;4996120;28;20230;-79
2023/03/03 01:40:56;;;;;;;5.47;5.00;;;19.10;36.40;;;;;;4994724;28;20440;-77
2023/03/03 01:43:25;;;;;;;4.57;4.27;;;19.10;36.40;;;;;;4995367;28;20285;-71
2023/03/03 01:45:52;;;;;;;5.63;5.13;;;19.10;36.40;;;;;;4990795;28;20502;-67
2023/03/03 01:48:21;;;;;;;4.70;4.40;;;19.10;36.50;;;;;;4993269;28;20440;-70
2023/03/03 01:50:49;;;;;;;4.63;4.33;;;19.10;36.40;;;;;;4990743;28;20462;-73
2023/03/03 01:53:32;;;;;;;4.53;4.33;;;19.10;36.40;;;;;;4981546;28;20483;-68
2023/03/03 01:55:58;;;;;;;5.37;4.87;;;19.10;36.40;;;;;;4991530;28;20464;-76
2023/03/03 01:58:29;;;;;;;4.47;4.17;;;19.10;36.40;;;;;;4999809;28;20460;-71
2023/03/03 02:01:03;;;;;;;4.97;4.50;;;19.10;36.40;;;;;;4998797;28;20487;-73
2023/03/03 02:03:29;;;;;;;5.00;4.70;;;19.10;36.50;;;;;;5000511;28;21022;-76
2023/03/03 02:05:58;;;;;;;4.10;3.80;;;19.10;36.50;;;;;;4992376;28;20426;-74
2023/03/03 02:08:29;;;;;;;4.90;4.60;;;19.10;36.50;;;;;;4989528;28;20446;-73
2023/03/03 02:10:56;;;;;;;4.50;4.20;;;19.10;36.50;;;;;;4998700;28;20918;-76
2023/03/03 02:13:22;;;;;;;4.77;4.47;;;19.10;36.50;;;;;;4996043;28;20481;-79
2023/03/03 02:15:48;;;;;;;5.37;4.87;;;19.10;36.50;;;;;;4985495;28;20435;-80
2023/03/03 02:18:15;;;;;;;4.73;4.43;;;19.10;36.40;;;;;;4988071;28;20593;-77
2023/03/03 02:20:43;;;;;;;4.50;4.20;;;19.10;36.50;;;;;;4991810;28;20242;-75
2023/03/03 02:23:16;;;;;;;5.07;4.67;;;19.10;36.50;;;;;;4990536;28;20432;-77
2023/03/03 02:25:41;;;;;;;4.50;4.10;;;19.10;36.50;;;;;;4994867;28;20428;-76
2023/03/03 02:28:07;;;;;;;4.93;4.63;;;19.10;36.50;;;;;;4987251;28;20420;-76
2023/03/03 02:30:37;;;;;;;5.70;5.13;;;19.10;36.50;;;;;;4997840;28;20263;-72
2023/03/03 02:33:03;;;;;;;5.23;4.83;;;19.10;37.30;;;;;;4982657;28;20223;-76
2023/03/03 02:35:35;;;;;;;4.63;4.33;;;19.10;36.50;;;;;;4999677;28;20423;-74
2023/03/03 02:38:29;;;;;;;5.33;4.93;;;19.10;37.30;;;;;;4994421;28;20305;-72
2023/03/03 02:41:01;;;;;;;5.20;4.87;;;19.10;36.50;;;;;;4994043;28;20637;-75
2023/03/03 02:43:35;;;;;;;4.90;4.50;;;19.10;36.50;;;;;;4983553;28;20442;-79
2023/03/03 02:46:01;;;;;;;5.00;4.70;;;19.10;36.50;;;;;;4998103;28;20972;-74
2023/03/03 02:48:26;;;;;;;5.00;4.70;;;19.10;36.50;;;;;;4997362;28;20470;-70
2023/03/03 02:50:52;;;;;;;4.70;4.30;;;19.10;36.50;;;;;;5000201;28;20602;-78
2023/03/03 02:53:18;;;;;;;5.63;5.13;;;19.10;36.50;;;;;;4996348;28;20315;-72
2023/03/03 02:55:43;;;;;;;5.10;4.80;;;19.10;36.50;;;;;;5000875;28;20578;-79
2023/03/03 02:58:09;;;;;;;4.70;4.40;;;19.10;36.50;;;;;;4994366;28;21372;-75
2023/03/03 03:00:34;;;;;;;4.97;4.67;;;19.10;36.50;;;;;;4995756;28;20234;-76
2023/03/03 03:03:00;;;;;;;5.17;4.77;;;19.10;36.50;;;;;;4982480;28;20227;-75
2023/03/03 03:05:25;;;;;;;5.43;5.13;;;19.10;36.50;;;;;;4988178;28;20313;-73
2023/03/03 03:07:51;;;;;;;4.87;4.57;;;19.10;36.50;;;;;;4988109;28;20228;-74
2023/03/03 03:10:16;;;;;;;4.80;4.40;;;19.10;36.50;;;;;;4994948;28;20239;-69
2023/03/03 03:12:42;;;;;;;5.70;5.30;;;19.10;36.50;;;;;;5002313;28;20223;-76
2023/03/03 03:15:08;;;;;;;5.50;5.00;;;19.10;36.50;;;;;;5001378;28;20223;-79
2023/03/03 03:17:37;;;;;;;5.67;5.20;;;19.10;36.40;;;;;;5002209;28;20272;-77
2023/03/03 03:20:03;;;;;;;5.53;5.03;;;19.10;36.40;;;;;;5001071;28;20464;-80
2023/03/03 03:22:29;;;;;;;5.60;5.20;;;19.10;36.40;;;;;;5000076;28;20444;-79
2023/03/03 03:24:54;;;;;;;5.50;5.13;;;19.10;36.40;;;;;;4989916;28;20444;-69
2023/03/03 03:27:22;;;;;;;5.20;4.90;;;19.10;36.40;;;;;;4985877;28;20227;-68
2023/03/03 03:29:48;;;;;;;6.10;5.60;;;19.10;36.40;;;;;;4989276;28;20586;-80
2023/03/03 03:32:13;;;;;;;6.03;5.50;;;19.10;36.40;;;;;;4993719;28;20436;-75
2023/03/03 03:34:39;;;;;;;5.30;4.90;;;19.10;36.40;;;;;;5000544;28;20223;-74
2023/03/03 03:37:05;;;;;;;4.90;4.60;;;19.10;36.40;;;;;;5001783;28;20683;-76
2023/03/03 03:39:31;;;;;;;5.30;4.90;;;19.10;36.40;;;;;;5000499;28;20229;-77
2023/03/03 03:41:56;;;;;;;4.83;4.53;;;19.10;36.40;;;;;;5002421;28;20424;-78
2023/03/03 03:44:24;;;;;;;5.27;4.87;;;19.10;36.40;;;;;;4995185;28;20219;-74
2023/03/03 03:46:49;;;;;;;5.80;5.30;;;19.10;36.40;;;;;;4994491;28;20235;-74
2023/03/03 03:49:15;;;;;;;5.70;5.30;;;19.10;36.50;;;;;;4992999;28;20458;-74
2023/03/03 03:51:40;;;;;;;5.33;4.93;;;19.10;36.40;;;;;;4995050;28;20236;-79
2023/03/03 03:54:07;;;;;;;6.47;5.97;;;19.10;36.40;;;;;;4991694;28;20670;-78
2023/03/03 03:56:32;;;;;;;5.43;5.10;;;19.10;36.40;;;;;;4990478;28;20215;-76
2023/03/03 03:58:59;;;;;;;5.10;4.70;;;19.10;36.50;;;;;;4993359;28;20503;-74
2023/03/03 04:01:25;;;;;;;5.33;4.93;;;19.10;36.40;;;;;;4994180;28;20239;-75
2023/03/03 04:03:50;;;;;;;5.30;4.90;;;19.10;36.40;;;;;;4995649;28;20447;-71
2023/03/03 04:06:16;;;;;;;5.23;4.73;;;19.10;36.40;;;;;;4990294;28;20361;-70
2023/03/03 04:08:42;;;;;;;5.90;5.40;;;19.10;36.50;;;;;;4998529;28;20223;-78
2023/03/03 04:11:07;;;;;;;6.20;5.67;;;19.10;36.40;;;;;;4999377;28;20680;-76
2023/03/03 04:13:34;;;;;;;4.80;4.40;;;19.10;36.50;;;;;;4995584;28;20912;-78
2023/03/03 04:16:00;;;;;;;5.80;5.33;;;19.10;36.40;;;;;;4998102;28;20713;-73
2023/03/03 04:18:26;;;;;;;5.60;5.10;;;19.10;36.40;;;;;;4982066;28;20458;-71
2023/03/03 04:20:53;;;;;;;5.83;5.43;;;19.10;36.40;;;;;;4994106;28;20465;-72
2023/03/03 04:23:19;;;;;;;4.73;4.43;;;19.10;36.50;;;;;;4991603;28;20223;-70
2023/03/03 04:25:48;;;;;;;5.47;5.07;;;19.10;36.50;;;;;;4982768;28;20735;-76
2023/03/03 04:28:17;;;;;;;5.13;4.73;;;19.10;36.50;;;;;;4987371;28;20560;-73
2023/03/03 04:30:44;;;;;;;5.77;5.37;;;19.10;36.50;;;;;;4995633;28;20443;-72
2023/03/03 04:33:09;;;;;;;6.07;5.67;;;19.10;36.50;;;;;;4991741;28;20510;-74
2023/03/03 04:35:35;;;;;;;5.53;5.10;;;19.10;36.50;;;;;;4996421;28;20532;-76
2023/03/03 04:38:00;;;;;;;5.00;4.63;;;19.10;36.50;;;;;;4999761;28;20223;-70
2023/03/03 04:40:26;;;;;;;6.10;5.57;;;19.10;36.50;;;;;;4990310;28;20278;-74
2023/03/03 04:42:52;;;;;;;5.30;4.90;;;19.00;36.50;;;;;;4992477;28;20265;-77
2023/03/03 04:45:17;;;;;;;5.57;5.17;;;19.10;36.50;;;;;;4993565;28;20244;-77
2023/03/03 04:47:43;;;;;;;4.80;4.50;;;19.10;36.50;;;;;;4989524;28;20582;-77
2023/03/03 04:50:10;;;;;;;5.40;4.90;;;19.10;36.50;;;;;;4988401;28;20231;-72
2023/03/03 04:52:35;;;;;;;5.53;5.13;;;19.10;36.40;;;;;;5001339;28;20219;-76
2023/03/03 04:55:01;;;;;;;5.20;4.80;;;19.10;36.50;;;;;;4998973;28;20528;-74
2023/03/03 04:57:26;;;;;;;5.20;4.90;;;19.10;37.30;;;;;;5001484;28;20242;-70
2023/03/03 04:59:52;;;;;;;4.80;4.43;;;19.10;36.50;;;;;;4987812;28;20224;-76
2023/03/03 05:02:18;;;;;;;5.30;4.90;;;19.10;36.50;;;;;;4996317;28;20599;-75
2023/03/03 05:04:44;;;;;;;5.07;4.67;;;19.10;36.50;;;;;;4991999;28;20223;-77
2023/03/03 05:07:09;;;;;;;5.37;4.97;;;19.10;36.40;;;;;;4990309;28;20469;-73
2023/03/03 05:09:35;;;;;;;5.53;5.10;;;19.10;36.40;;;;;;4989054;28;21843;-78
2023/03/03 05:12:00;;;;;;;5.77;5.27;;;19.10;36.50;;;;;;4996406;28;20234;-78
2023/03/03 05:14:26;;;;;;;5.43;5.00;;;19.10;36.40;;;;;;5000670;28;20230;-76
2023/03/03 05:16:52;;;;;;;6.83;6.27;;;19.10;36.40;;;;;;4997566;28;20880;-78
2023/03/03 05:19:18;;;;;;;5.50;5.10;;;19.10;36.40;;;;;;4999345;28;20526;-77
2023/03/03 05:21:44;;;;;;;6.23;5.63;;;19.10;36.50;;;;;;4996826;28;20436;-77
2023/03/03 05:24:11;;;;;;;5.00;4.60;;;19.10;36.40;;;;;;4999616;28;20671;-75
2023/03/03 05:26:37;;;;;;;5.50;5.03;;;19.10;36.40;;;;;;4995510;28;20231;-76
2023/03/03 05:29:03;;;;;;;4.80;4.50;;;19.10;36.40;;;;;;5006108;28;20846;-78
2023/03/03 05:31:29;;;;;;;5.83;5.43;;;19.10;36.40;;;;;;4985001;28;20244;-78
2023/03/03 05:33:54;;;;;;;5.10;4.80;;;19.10;36.50;;;;;;5003993;28;20802;-66
2023/03/03 05:36:20;;;;;;;6.47;5.53;;;19.10;36.40;;;;;;4982775;28;20220;-71
2023/03/03 05:38:45;;;;;;;5.30;4.90;;;19.10;36.50;;;;;;4989206;28;20235;-72
2023/03/03 05:41:11;;;;;;;6.17;5.70;;;19.10;36.40;;;;;;4992820;28;20227;-80
2023/03/03 05:43:37;;;;;;;5.67;5.27;;;19.10;36.40;;;;;;4984448;28;20263;-73
2023/03/03 05:46:02;;;;;;;5.83;5.43;;;19.10;36.30;;;;;;4981903;28;20258;-76
2023/03/03 05:48:28;;;;;;;6.17;5.67;;;19.20;36.40;;;;;;4985891;28;21259;-69
2023/03/03 05:50:56;;;;;;;5.10;4.70;;;19.20;36.40;;;;;;4987104;28;20250;-68
2023/03/03 05:53:22;;;;;;;5.60;5.10;;;19.20;36.30;;;;;;4985102;28;20366;-67
2023/03/03 05:55:48;;;;;;;6.27;5.73;;;19.20;36.30;;;;;;4991323;28;21216;-74
2023/03/03 05:58:13;;;;;;;6.00;5.40;;;19.20;36.30;;;;;;4991565;28;20816;-71
2023/03/03 06:00:39;;;;;;;6.00;5.50;;;19.20;36.30;;;;;;4991821;28;20233;-69
2023/03/03 06:03:04;;;;;;;5.40;5.00;;;19.20;36.30;;;;;;4991742;28;21986;-73
2023/03/03 06:05:30;;;;;;;6.07;5.57;;;19.20;36.30;;;;;;4981553;28;20223;-74
2023/03/03 06:07:56;;;;;;;6.23;5.70;;;19.20;36.30;;;;;;4997111;28;20250;-69
2023/03/03 06:10:21;;;;;;;6.00;5.50;;;19.20;36.40;;;;;;4985196;28;20247;-71
2023/03/03 06:12:47;;;;;;;5.13;4.73;;;19.20;36.40;;;;;;4987540;28;20798;-70
2023/03/03 06:15:12;;;;;;;5.70;5.27;;;19.10;36.30;;;;;;4992044;28;20685;-76
2023/03/03 06:17:38;;;;;;;5.70;5.20;;;19.20;36.30;;;;;;4992940;28;20617;-74
2023/03/03 06:20:04;;;;;;;7.40;5.40;;;19.20;36.40;;;;;;4977367;28;20688;-73
2023/03/03 06:22:30;;;;;;;5.23;4.83;;;19.20;36.30;;;;;;4993371;28;20216;-73
2023/03/03 06:24:55;;;;;;;6.40;5.80;;;19.20;36.40;;;;;;4993145;28;20436;-73
2023/03/03 06:27:21;;;;;;;5.40;4.90;;;19.20;36.30;;;;;;4997633;28;20594;-74
2023/03/03 06:29:47;;;;;;;5.23;4.83;;;19.20;36.30;;;;;;4989209;28;20265;-75
2023/03/03 06:32:12;;;;;;;5.20;4.80;;;19.20;36.30;;;;;;4996445;28;20310;-78
2023/03/03 06:34:38;;;;;;;5.53;5.13;;;19.20;36.30;;;;;;4991129;28;20265;-78
2023/03/03 06:37:03;;;;;;;5.17;4.77;;;19.20;36.30;;;;;;4999357;28;20222;-75
2023/03/03 06:39:29;;;;;;;5.60;5.20;;;19.20;36.30;;;;;;4992213;28;20432;-66
2023/03/03 06:41:54;;;;;;;5.93;5.53;;;19.20;36.30;;;;;;4985692;28;20231;-79
2023/03/03 06:44:20;;;;;;;5.40;5.00;;;19.20;36.30;;;;;;5000759;28;20238;-76
2023/03/03 06:46:46;;;;;;;5.97;5.50;;;19.20;36.30;;;;;;4995536;28;20239;-68
2023/03/03 06:49:11;;;;;;;6.33;5.87;;;19.20;36.30;;;;;;4997626;28;20221;-69
2023/03/03 06:51:42;;;;;;;5.07;4.70;;;19.20;36.40;;;;;;4995510;28;20244;-73
2023/03/03 06:54:17;;;;;;;6.70;6.03;;;19.20;36.50;;;;;;4986404;28;20289;-73
2023/03/03 06:56:44;;;;;;;5.30;4.90;;;19.20;36.30;;;;;;4999476;28;20488;-78
2023/03/03 06:59:18;;;;;;;6.13;5.63;;;19.20;36.30;;;;;;5000834;28;20439;-73
2023/03/03 07:01:45;;;;;;;6.00;5.60;;;19.20;36.30;;;;;;5003202;28;20427;-69
2023/03/03 07:04:30;;;;;;;6.30;5.50;;;19.20;36.30;;;;;;5001837;28;20988;-75
2023/03/03 07:07:15;;;;;;;5.10;4.80;;;19.20;36.20;;;;;;4992840;28;21039;-78
2023/03/03 07:09:46;;;;;;;6.23;5.60;;;19.20;36.20;;;;;;5001792;28;20808;-72
2023/03/03 07:12:21;;;;;;;5.60;5.20;;;19.20;36.30;;;;;;5002497;28;20424;-75
2023/03/03 07:14:54;;;;;;;5.40;5.00;;;19.20;36.20;;;;;;5001127;28;20568;-77
2023/03/03 07:17:22;;;;;;;5.43;5.13;;;19.20;36.50;;;;;;5001597;28;20500;-76
2023/03/03 07:19:48;;;;;;;5.63;5.17;;;19.20;36.20;;;;;;5002892;28;20805;-75
2023/03/03 07:22:18;;;;;;;6.20;5.70;;;19.20;36.20;;;;;;5003425;28;20766;-75
2023/03/03 07:24:49;;;;;;;5.60;5.10;;;19.20;36.20;;;;;;5001143;28;20775;-76
2023/03/03 07:27:29;;;;;;;6.70;6.03;;;19.20;36.20;;;;;;4991741;28;20955;-74
2023/03/03 07:30:16;;;;;;;5.43;5.03;;;19.20;36.20;;;;;;5000587;28;20450;-76
2023/03/03 07:32:44;;;;;;;5.50;5.10;;;19.20;36.20;;;;;;5000120;28;20453;-76
2023/03/03 07:35:36;;;;;;;5.57;5.07;;;19.20;36.20;;;;;;4992176;28;21023;-77
2023/03/03 07:38:10;;;;;;;6.47;5.37;;;19.20;36.20;;;;;;5001066;28;20453;-70
2023/03/03 07:40:37;;;;;;;6.00;5.50;;;19.20;36.20;;;;;;5001890;28;20440;-77
2023/03/03 07:43:18;;;;;;;5.37;4.87;;;19.10;36.20;;;;;;5000204;28;20436;-77
2023/03/03 07:45:44;;;;;;;5.77;5.30;;;19.20;36.20;;;;;;4999438;28;20475;-76
2023/03/03 07:48:12;;;;;;;4.93;4.53;;;19.20;36.20;;;;;;5002378;28;20449;-78
2023/03/03 07:50:39;;;;;;;6.57;6.07;;;19.20;36.20;;;;;;5001356;28;20239;-77
2023/03/03 07:53:20;;;;;;;4.80;4.40;;;19.20;36.20;;;;;;4997487;28;20990;-78
2023/03/03 07:55:45;;;;;;;5.20;4.80;;;19.10;36.20;;;;;;4978503;28;20435;-73
2023/03/03 07:58:15;;;;;;;5.77;5.30;;;19.10;36.20;;;;;;4991669;28;20457;-76
2023/03/03 08:01:41;;;;;;;4.33;4.03;;;19.10;36.20;;;;;;4995444;28;20757;-74
2023/03/03 08:04:16;;;;;;;5.10;4.70;;;19.10;36.20;;;;;;4978519;28;20450;-68
2023/03/03 08:07:04;;;;;;;5.73;5.10;;;19.10;36.20;;;;;;4993323;28;20514;-76
2023/03/03 08:09:38;;;;;;;5.97;5.47;;;19.10;36.20;;;;;;4983249;28;20440;-78
2023/03/03 08:12:08;;;;;;;4.73;4.43;;;19.10;36.20;;;;;;4992721;28;20511;-79
2023/03/03 08:14:35;;;;;;;6.03;4.30;;;19.10;36.20;;;;;;4992019;28;20446;-80
2023/03/03 08:17:06;;;;;;;4.60;4.30;;;19.10;36.20;;;;;;5002438;28;20424;-70
2023/03/03 08:19:33;;;;;;;4.83;4.53;;;19.10;36.20;;;;;;4989817;28;20491;-80
2023/03/03 08:22:12;;;;;;;4.70;4.30;;;19.10;36.20;;;;;;5002704;28;20441;-77
2023/03/03 08:24:38;;;;;;;4.97;4.57;;;19.10;36.20;;;;;;4998067;28;21167;-79
2023/03/03 08:27:03;;;;;;;5.63;5.07;;;19.10;36.20;;;;;;5001528;28;20485;-77
2023/03/03 08:29:29;;;;;;;5.43;5.03;;;19.10;36.20;;;;;;4987523;28;20238;-81
2023/03/03 08:31:54;;;;;;;4.90;4.50;;;19.10;36.10;;;;;;4987058;28;20235;-80
2023/03/03 08:34:20;;;;;;;5.60;5.20;;;19.10;36.10;;;;;;4990606;28;20223;-76
2023/03/03 08:36:46;;;;;;;4.70;4.30;;;19.10;36.10;;;;;;4997505;28;20227;-80
2023/03/03 08:39:12;;;;;;;5.23;4.73;;;19.10;36.10;;;;;;4996455;28;20223;-74
2023/03/03 08:41:39;;;;;;;5.50;4.23;;;19.10;36.10;;;;;;5000075;28;20770;-83
2023/03/03 08:44:05;;;;;;;5.50;5.10;;;19.10;36.10;;;;;;4991904;28;20226;-81
2023/03/03 08:46:30;;;;;;;5.13;4.67;;;19.10;36.10;;;;;;4992235;28;20449;-81
2023/03/03 08:48:56;;;;;;;5.20;4.70;;;19.10;36.10;;;;;;4996933;28;20220;-79
2023/03/03 08:51:21;;;;;;;5.00;4.70;;;19.10;36.10;;;;;;4986796;28;20314;-83
2023/03/03 08:53:47;;;;;;;5.70;5.13;;;19.10;36.10;;;;;;4993675;28;20234;-82
2023/03/03 08:56:12;;;;;;;5.53;5.13;;;19.10;36.10;;;;;;5002458;28;20306;-68
2023/03/03 08:58:40;;;;;;;5.63;5.07;;;19.10;36.20;;;;;;4994793;28;21271;-79
2023/03/03 09:01:06;;;;;;;5.10;4.80;;;19.10;36.10;;;;;;4984476;28;20231;-80
2023/03/03 09:03:31;;;;;;;6.03;5.60;;;19.10;36.20;;;;;;4994661;28;20487;-77
2023/03/03 09:05:57;;;;;;;4.83;4.37;;;19.10;36.20;;;;;;5001517;28;20702;-74
2023/03/03 09:08:22;;;;;;;5.63;5.23;;;19.10;36.20;;;;;;4998104;28;21149;-72
2023/03/03 09:10:48;;;;;;;5.27;4.77;;;19.10;36.10;;;;;;5002136;28;20237;-74
2023/03/03 09:13:17;;;;;;;5.57;5.07;;;19.10;36.20;;;;;;4995994;28;20235;-70
2023/03/03 09:15:43;;;;;;;5.37;4.87;;;19.10;36.20;;;;;;4997145;28;20231;-74
2023/03/03 09:18:34;;;;;;;5.50;5.00;;;19.10;36.10;;;;;;4993234;28;20420;-73
2023/03/03 09:20:59;;;;;;;5.60;5.10;;;19.10;36.10;;;;;;4999211;28;20420;-75
2023/03/03 09:23:30;;;;;;;5.77;5.27;;;19.10;36.20;;;;;;4994436;28;20788;-74
2023/03/03 09:25:57;;;;;;;5.37;4.97;;;19.10;36.20;;;;;;5001560;28;20216;-75
2023/03/03 09:28:31;;;;;;;5.70;5.30;;;19.10;36.20;;;;;;4997569;28;20443;-73
2023/03/03 09:31:01;;;;;;;5.20;4.80;;;19.10;36.10;;;;;;4999342;28;20469;-76
2023/03/03 09:33:29;;;;;;;4.80;4.50;;;19.10;36.20;;;;;;4995232;28;20833;-76
2023/03/03 09:36:19;;;;;;;5.97;5.47;;;19.10;36.20;;;;;;4992945;28;20440;-69
2023/03/03 09:38:46;;;;;;;5.90;5.50;;;19.10;36.20;;;;;;4999236;28;20463;-70
2023/03/03 09:41:29;;;;;;;6.60;5.70;;;19.10;36.20;;;;;;5000324;28;20465;-74
2023/03/03 09:44:03;;;;;;;5.37;4.97;;;19.10;36.20;;;;;;5000375;28;20435;-75
2023/03/03 09:46:47;;;;;;;5.23;4.83;;;19.10;36.20;;;;;;5019467;28;20456;-74
2023/03/03 09:49:23;;;;;;;5.83;5.40;;;19.10;36.30;;;;;;4987473;28;20472;-72
2023/03/03 09:51:51;;;;;;;6.30;5.80;;;19.10;36.30;;;;;;4997555;28;20446;-74
2023/03/03 09:54:51;;;;;;;5.63;5.23;;;19.10;36.20;;;;;;5000576;28;21120;-71
2023/03/03 09:57:28;;;;;;;6.50;5.90;;;19.10;36.20;;;;;;4998541;28;20453;-74
2023/03/03 09:59:54;;;;;;;5.70;5.20;;;19.00;36.20;;;;;;4990296;28;20435;-72
2023/03/03 10:02:42;;;;;;;5.50;5.10;;;19.10;36.20;;;;;;4983037;28;20461;-69
2023/03/03 10:05:18;;;;;;;6.27;5.63;;;19.10;36.20;;;;;;4998174;28;20237;-76
2023/03/03 10:07:53;;;;;;;6.30;5.70;;;19.00;36.20;;;;;;4999325;28;20923;-75
2023/03/03 10:10:30;;;;;;;6.40;5.80;;;19.10;36.30;;;;;;4999768;28;20976;-72
2023/03/03 10:13:25;;;;;;;5.70;5.30;;;19.00;36.10;;;;;;4993728;28;20533;-76
2023/03/03 10:16:16;;;;;;;5.10;4.70;;;19.10;36.30;;;;;;5000263;28;20440;-73
2023/03/03 10:18:59;;;;;;;5.60;5.20;;;19.00;36.20;;;;;;4996823;28;20497;-75
2023/03/03 10:22:02;;;;;;;5.40;5.00;;;19.00;36.20;;;;;;4999764;28;20435;-75
2023/03/03 10:24:30;;;;;;;5.73;5.33;;;19.10;36.30;;;;;;4997728;28;20717;-76
2023/03/03 10:27:29;;;;;;;5.70;5.30;;;19.00;36.20;;;;;;4999093;28;20451;-76
2023/03/03 10:29:55;;;;;;;5.67;5.27;;;19.00;36.10;;;;;;4996581;28;20440;-71
2023/03/03 10:32:41;;;;;;;5.80;5.30;;;19.00;36.20;;;;;;4999399;28;20449;-76
2023/03/03 10:35:31;;;;;;;6.47;5.73;;;19.10;36.20;;;;;;4997310;28;20444;-74
2023/03/03 10:38:13;;;;;;;5.47;5.07;;;19.00;36.10;;;;;;5001468;28;20867;-74
2023/03/03 10:40:53;;;;;;;6.10;5.60;;;19.10;36.20;;;;;;4993967;28;20439;-75
2023/03/03 10:43:37;;;;;;;5.43;5.03;;;19.10;36.30;;;;;;5001119;28;20465;-71
2023/03/03 10:46:27;;;;;;;6.10;5.60;;;19.10;36.30;;;;;;4995115;28;20536;-73
2023/03/03 10:49:29;;;;;;;6.10;5.70;;;19.00;36.10;;;;;;4993270;28;20785;-74
2023/03/03 10:52:01;;;;;;;5.90;5.40;;;19.10;36.20;;;;;;4985322;28;21015;-73
2023/03/03 10:55:03;;;;;;;6.03;5.53;;;19.00;36.10;;;;;;4994383;28;20468;-72
2023/03/03 10:57:47;;;;;;;6.20;5.70;;;19.10;36.20;;;;;;4997436;28;20961;-73
2023/03/03 11:00:36;;;;;;;6.67;6.17;;;19.10;36.20;;;;;;4989264;28;20459;-76
2023/03/03 11:03:23;;;;;;;6.70;6.03;;;19.10;36.10;;;;;;4994026;28;20438;-73
2023/03/03 11:06:07;;;;;;;7.10;6.40;;;19.10;36.20;;;;;;4997201;28;20461;-73
2023/03/03 11:08:40;;;;;;;5.93;5.43;;;19.10;36.20;;;;;;4991019;28;20476;-72
2023/03/03 11:11:37;;;;;;;6.20;5.70;;;19.10;36.10;;;;;;5001047;28;20461;-72
2023/03/03 11:14:30;;;;;;;6.60;6.00;;;19.10;36.10;;;;;;5009791;28;20465;-65
2023/03/03 11:17:14;;;;;;;7.00;5.57;;;19.10;36.20;;;;;;4996792;28;20456;-75
2023/03/03 11:20:00;;;;;;;7.07;6.37;;;19.10;36.20;;;;;;4998313;28;21002;-76
2023/03/03 11:22:53;;;;;;;7.00;6.40;;;19.10;36.10;;;;;;4999804;28;20468;-75
2023/03/03 11:25:48;;;;;;;6.70;6.10;;;19.10;36.10;;;;;;4988869;28;20474;-74
2023/03/03 11:28:29;;;;;;;6.73;6.20;;;19.10;36.10;;;;;;4989546;28;20452;-75
2023/03/03 11:31:21;;;;;;;7.10;6.50;;;19.10;36.10;;;;;;5002197;28;20449;-75
2023/03/03 11:34:05;;;;;;;6.80;6.17;;;19.10;36.10;;;;;;4993207;28;20473;-76
2023/03/03 11:36:41;;;;;;;6.40;5.80;;;19.10;36.20;;;;;;4997182;28;20439;-75
2023/03/03 11:39:10;;;;;;;6.20;5.80;;;19.10;36.10;;;;;;4991520;28;20448;-80
2023/03/03 11:41:41;;;;;;;7.47;6.77;;;19.10;36.10;;;;;;4983472;28;21807;-85
2023/03/03 11:44:29;;;;;;;6.40;5.70;;;19.10;36.10;;;;;;4988196;28;22328;-71
2023/03/03 11:47:15;;;;;;;6.03;5.53;;;19.10;36.10;;;;;;4998705;28;20502;-82
2023/03/03 11:50:39;;;;;;;6.90;6.23;;;19.10;36.20;;;;;;4993543;28;20493;-83
2023/03/03 11:53:31;;;;;;;7.63;6.93;;;19.10;36.10;;;;;;4986440;28;20447;-82
2023/03/03 11:56:04;;;;;;;8.30;6.80;;;19.10;36.10;;;;;;4989061;28;20467;-84
2023/03/03 11:58:39;;;;;;;7.20;6.47;;;19.10;36.20;;;;;;4991702;28;20545;-82
2023/03/03 12:01:29;;;;;;;6.33;5.87;;;19.10;36.20;;;;;;4993865;28;20440;-84
2023/03/03 12:04:13;;;;;;;7.00;6.30;;;19.10;36.10;;;;;;4980042;28;20498;-74
2023/03/03 12:06:56;;;;;;;8.30;7.50;;;19.10;36.10;;;;;;4992357;28;20435;-75
2023/03/03 12:09:28;;;;;;;8.17;7.37;;;19.10;36.20;;;;;;4996611;28;20467;-82
2023/03/03 12:12:04;;;;;;;7.63;6.93;;;19.10;36.20;;;;;;5001421;28;20481;-79
2023/03/03 12:15:04;;;;;;;7.23;6.63;;;19.10;36.10;;;;;;4991887;28;20465;-83
2023/03/03 12:17:41;;;;;;;7.10;6.50;;;19.10;36.10;;;;;;4995439;28;20442;-84
2023/03/03 12:20:16;;;;;;;6.60;6.10;;;19.10;36.10;;;;;;5022054;28;20477;-85
2023/03/03 12:23:01;;;;;;;7.87;6.63;;;19.10;36.10;;;;;;4995890;28;20447;-81
2023/03/03 12:25:46;;;;;;;7.73;7.03;;;19.10;36.10;;;;;;4996245;28;20548;-79
2023/03/03 12:28:35;;;;;;;7.23;6.53;;;19.10;36.10;;;;;;4989777;28;21025;-85
2023/03/03 12:31:21;;;;;;;7.97;7.17;;;19.10;36.10;;;;;;4990692;28;20435;-85
2023/03/03 12:34:28;;;;;;;9.10;7.07;;;19.10;36.10;;;;;;4996234;28;20489;-81
2023/03/03 12:37:21;;;;;;;7.37;6.73;;;19.10;36.10;;;;;;4994997;28;20459;-81
2023/03/03 12:40:06;;;;;;;8.47;7.17;;;19.10;36.10;;;;;;4981623;28;20471;-78
2023/03/03 12:42:52;;;;;;;8.13;7.33;;;19.10;36.10;;;;;;4986259;28;20473;-84
2023/03/03 12:45:41;;;;;;;7.40;6.80;;;19.10;36.20;;;;;;4985284;28;20461;-68
2023/03/03 12:48:14;;;;;;;7.90;6.33;;;19.10;36.10;;;;;;4992468;28;20472;-80
2023/03/03 12:51:13;;;;;;;6.20;5.70;;;19.10;36.10;;;;;;4994191;28;20473;-77
2023/03/03 12:54:09;;;;;;;7.40;6.70;;;19.10;36.10;;;;;;4995825;28;20462;-79
2023/03/03 12:56:44;;;;;;;9.83;8.60;;;19.10;36.10;;;;;;4988670;28;20438;-79
2023/03/03 12:59:34;;;;;;;7.70;7.00;;;19.10;36.10;;;;;;4984580;28;20471;-82
2023/03/03 13:02:21;;;;;;;7.70;7.00;;;19.10;36.10;;;;;;4989500;28;20541;-82
2023/03/03 13:05:19;;;;;;;6.80;6.23;;;19.10;36.10;;;;;;4986694;28;20480;-82
2023/03/03 13:08:01;;;;;;;7.33;6.63;;;19.10;36.10;;;;;;5008472;28;20444;-82
2023/03/03 13:10:37;;;;;;;10.87;7.97;;;19.10;36.20;;;;;;5000591;28;20447;-84
2023/03/03 13:13:10;;;;;;;7.50;6.70;;;19.10;36.00;;;;;;4994641;28;20793;-76
2023/03/03 13:15:46;;;;;;;9.27;7.97;;;19.10;36.10;;;;;;4991340;28;20466;-79